Auriesville, New York
Current Conditions -  °F | °C
As of 7:55 AM on Tuesday 21 Oct 2014 (Local Time) from KNY0 Reporting Station
Overcast Overcast  
Wind Chill: 40°   Ceiling: 4400
Heat Index: 43°   Visibility: 10mi
Dew Point: 41°   Wind: 5mph
Humidity: 93%   Direction: 40°NE
Pressure: 29.9"   Gusts: NA
Location:  42.93°N, 74.32°W
Report Text: KNY0 211155Z AUTO 04004KT 10SM OVC044 06/05 A2990 RMK AO2 T00610051 10065 20060
Loading
Personal Weather Stations






























Interactive Weather Map
Tropical Storm Tracking
New forecast layout! Learn more

10-Day Weather Forecast

Advertisements
Track Severe Weather on mobile